Time;durP1;ratioP1;P1;durP2;ratioP2;P2;SDS_P1;SDS_P2;PMS_P1;PMS_P2;Temp;Humidity;BMP_temperature;BMP_pressure;BME280_temperature;BME280_humidity;BME280_pressure;Samples;Min_cycle;Max_cycle;Signal;HPM_P1;HPM_P2
2022/08/21 00:01:20;;;;;;;25.97;16.02;;;;;;;18.06;100.00;97582.91;1696311;83;20937;-89
2022/08/21 00:03:46;;;;;;;25.30;15.30;;;;;;;18.04;100.00;97572.30;1696516;83;21028;-89
2022/08/21 00:06:12;;;;;;;18.80;14.90;;;;;;;18.04;100.00;97568.98;1699023;84;21338;-88
2022/08/21 00:08:38;;;;;;;20.95;13.55;;;;;;;18.04;100.00;97566.81;1693273;82;20980;-89
2022/08/21 00:11:05;;;;;;;18.50;14.73;;;;;;;18.02;100.00;97575.91;1699040;84;21607;-89
2022/08/21 00:13:31;;;;;;;18.30;13.03;;;;;;;18.01;100.00;97568.27;1684457;83;21024;-88
2022/08/21 00:15:57;;;;;;;21.85;14.33;;;;;;;18.00;100.00;97570.78;1669385;85;21014;-89
2022/08/21 00:18:24;;;;;;;20.92;14.85;;;;;;;18.02;100.00;97563.58;1696598;82;20996;-89
2022/08/21 00:20:50;;;;;;;21.07;14.05;;;;;;;18.03;100.00;97561.06;1658298;84;21036;-89
2022/08/21 00:23:15;;;;;;;22.05;13.90;;;;;;;18.04;100.00;97555.84;1697509;83;21055;-89
2022/08/21 00:25:42;;;;;;;21.52;16.35;;;;;;;18.03;100.00;97555.05;1679042;85;20945;-89
2022/08/21 00:28:08;;;;;;;27.05;17.52;;;;;;;18.06;100.00;97556.30;1683879;83;20894;-89
2022/08/21 00:30:34;;;;;;;26.70;18.45;;;;;;;18.09;100.00;97556.98;1696304;84;21453;-89
2022/08/21 00:33:00;;;;;;;24.95;17.55;;;;;;;18.10;100.00;97555.84;1696316;83;21044;-88
2022/08/21 00:35:34;;;;;;;27.10;17.85;;;;;;;18.14;100.00;97552.66;1698927;84;21853;-89
2022/08/21 00:38:00;;;;;;;23.90;17.92;;;;;;;18.15;100.00;97547.41;1690882;84;20970;-88
2022/08/21 00:40:33;;;;;;;23.02;15.08;;;;;;;18.14;100.00;97547.17;1669343;86;21714;-89
2022/08/21 00:43:01;;;;;;;27.77;16.05;;;;;;;18.11;100.00;97543.72;1696200;83;21001;-89
2022/08/21 00:45:27;;;;;;;25.17;14.70;;;;;;;18.09;100.00;97540.53;1655550;84;21000;-88
2022/08/21 00:47:54;;;;;;;21.73;15.23;;;;;;;18.07;100.00;97535.96;1696142;83;21625;-89
2022/08/21 00:50:21;;;;;;;22.93;14.18;;;;;;;18.06;100.00;97535.73;1698638;84;21029;-88
2022/08/21 00:52:47;;;;;;;24.40;14.83;;;;;;;18.06;100.00;97539.05;1698704;84;21025;-89
2022/08/21 00:55:13;;;;;;;23.00;13.38;;;;;;;18.02;100.00;97546.56;1698722;84;20964;-89
2022/08/21 00:57:46;;;;;;;22.37;13.83;;;;;;;17.99;100.00;97538.23;1695907;84;20996;-89
2022/08/21 01:00:16;;;;;;;18.87;13.35;;;;;;;17.99;100.00;97527.27;1668817;84;21829;-88
2022/08/21 01:02:42;;;;;;;20.32;13.60;;;;;;;17.98;100.00;97510.02;1669188;84;21017;-89
2022/08/21 01:05:09;;;;;;;23.05;13.53;;;;;;;18.01;100.00;97512.64;1651624;85;20958;-90
2022/08/21 01:07:35;;;;;;;17.87;12.05;;;;;;;18.02;100.00;97508.19;1681815;84;21508;-89
2022/08/21 01:10:02;;;;;;;15.35;12.33;;;;;;;18.02;100.00;97504.08;1698853;84;21021;-90
2022/08/21 01:12:28;;;;;;;21.45;13.25;;;;;;;17.95;100.00;97503.06;1697808;83;21895;-90
2022/08/21 01:14:54;;;;;;;20.40;11.78;;;;;;;17.93;100.00;97500.63;1669125;84;20990;-89
2022/08/21 01:17:21;;;;;;;17.35;11.40;;;;;;;17.89;100.00;97493.45;1669551;86;20985;-89
2022/08/21 01:19:47;;;;;;;12.63;10.58;;;;;;;17.92;100.00;97502.35;1697465;84;21020;-90
2022/08/21 01:22:13;;;;;;;15.70;11.57;;;;;;;17.93;100.00;97507.48;1698924;84;21135;-89
2022/08/21 01:24:39;;;;;;;16.52;10.90;;;;;;;17.96;100.00;97510.94;1677438;84;21136;-88
2022/08/21 01:27:05;;;;;;;17.70;12.00;;;;;;;17.98;100.00;97493.58;1670869;84;20973;-89
2022/08/21 01:29:47;;;;;;;18.60;11.73;;;;;;;17.99;100.00;97481.47;1695393;82;21005;-88
2022/08/21 01:32:16;;;;;;;16.32;12.88;;;;;;;18.02;100.00;97473.92;1698752;84;21025;-88
2022/08/21 01:34:44;;;;;;;17.02;11.38;;;;;;;18.03;100.00;97481.57;1675773;84;21028;-89
2022/08/21 01:37:10;;;;;;;15.47;10.77;;;;;;;18.05;100.00;97475.20;1671332;84;21154;-88
2022/08/21 01:39:36;;;;;;;22.70;13.30;;;;;;;18.04;100.00;97479.09;1697878;84;21729;-88
2022/08/21 01:42:03;;;;;;;19.05;12.47;;;;;;;18.01;100.00;97479.75;1699066;84;21036;-89
2022/08/21 01:44:29;;;;;;;13.65;10.80;;;;;;;18.00;100.00;97480.32;1672871;83;21073;-89
2022/08/21 01:46:56;;;;;;;17.32;11.50;;;;;;;18.02;100.00;97478.03;1669450;86;20990;-89
2022/08/21 01:49:21;;;;;;;14.15;10.98;;;;;;;18.03;100.00;97478.29;1670831;84;21880;-88
2022/08/21 01:51:52;;;;;;;15.58;11.03;;;;;;;18.03;100.00;97474.72;1703417;83;21025;-90
2022/08/21 01:54:15;;;;;;;15.93;11.05;;;;;;;18.02;100.00;97469.02;1698012;83;20953;-90
2022/08/21 01:56:45;;;;;;;20.90;12.65;;;;;;;18.03;100.00;97465.95;1699096;84;21028;-89
2022/08/21 01:59:10;;;;;;;16.85;11.38;;;;;;;18.06;100.00;97463.09;1659168;85;20986;-89
2022/08/21 02:01:39;;;;;;;16.77;12.15;;;;;;;18.06;100.00;97465.83;1683434;85;21158;-89
2022/08/21 02:04:05;;;;;;;14.00;11.00;;;;;;;18.05;100.00;97457.38;1690511;83;21056;-90
2022/08/21 02:06:31;;;;;;;17.80;11.30;;;;;;;18.03;100.00;97459.09;1699010;83;21758;-89
2022/08/21 02:08:57;;;;;;;18.05;12.00;;;;;;;18.02;100.00;97462.16;1686200;84;21295;-89
2022/08/21 02:11:23;;;;;;;14.55;11.12;;;;;;;18.01;100.00;97455.87;1675184;84;21001;-90
2022/08/21 02:13:50;;;;;;;16.32;11.85;;;;;;;18.01;100.00;97455.08;1686693;83;21114;-89
2022/08/21 02:16:16;;;;;;;16.32;12.00;;;;;;;18.01;100.00;97450.39;1681172;84;20955;-89
2022/08/21 02:18:43;;;;;;;15.98;10.80;;;;;;;18.01;100.00;97448.23;1676723;84;21076;-89
2022/08/21 02:21:09;;;;;;;17.82;11.20;;;;;;;17.97;100.00;97445.95;1670937;84;21016;-89
2022/08/21 02:23:35;;;;;;;14.70;10.30;;;;;;;17.94;100.00;97441.13;1675693;84;21028;-89
2022/08/21 02:26:02;;;;;;;17.48;11.65;;;;;;;17.93;100.00;97447.19;1670644;84;21121;-89
2022/08/21 02:28:28;;;;;;;17.48;10.72;;;;;;;17.92;100.00;97443.42;1674071;84;20991;-89
2022/08/21 02:30:54;;;;;;;17.02;11.57;;;;;;;17.91;100.00;97450.05;1676740;85;20911;-89
2022/08/21 02:33:20;;;;;;;14.95;11.15;;;;;;;17.91;100.00;97441.83;1680028;83;21442;-89
2022/08/21 02:35:47;;;;;;;19.25;11.00;;;;;;;17.92;100.00;97445.59;1699035;83;21454;-89
2022/08/21 02:38:20;;;;;;;17.45;11.75;;;;;;;17.94;100.00;97438.39;1688848;84;21123;-89
2022/08/21 02:40:47;;;;;;;18.70;11.55;;;;;;;17.97;100.00;97438.53;1670455;85;20989;-89
2022/08/21 02:43:14;;;;;;;13.90;11.78;;;;;;;17.96;100.00;97434.19;1668232;84;21391;-90
2022/08/21 02:45:41;;;;;;;16.70;10.75;;;;;;;17.96;100.00;97430.08;1671844;85;20997;-89
2022/08/21 02:48:09;;;;;;;13.62;11.68;;;;;;;17.94;100.00;97428.23;1670414;84;20936;-90
2022/08/21 02:50:46;;;;;;;16.20;11.50;;;;;;;17.95;100.00;97430.43;1696353;84;21149;-89
2022/08/21 02:53:16;;;;;;;17.07;12.00;;;;;;;17.95;100.00;97429.06;1724199;81;21016;-89
2022/08/21 02:55:40;;;;;;;;;;;;;;;17.93;100.00;97429.38;1728649;83;21040;-89
2022/08/21 02:58:07;;;;;;;16.37;11.55;;;;;;;17.96;100.00;97434.19;1737980;81;20452;-89
2022/08/21 03:00:34;;;;;;;17.62;11.55;;;;;;;17.95;100.00;97426.31;1765799;80;21046;-89
2022/08/21 03:03:00;;;;;;;13.05;10.63;;;;;;;17.97;100.00;97429.51;1762749;80;21042;-89
2022/08/21 03:05:27;;;;;;;15.93;10.70;;;;;;;17.98;100.00;97431.91;1726408;82;21048;-89
2022/08/21 03:07:53;;;;;;;13.30;10.50;;;;;;;18.01;100.00;97426.30;1732960;81;21037;-89
2022/08/21 03:10:20;;;;;;;15.25;10.32;;;;;;;18.04;100.00;97434.66;1733650;81;21087;-89
2022/08/21 03:12:47;;;;;;;13.88;10.35;;;;;;;18.06;100.00;97438.42;1764259;80;21015;-89
2022/08/21 03:15:15;;;;;;;22.37;11.57;;;;;;;18.08;100.00;97446.30;1726514;81;21131;-89
2022/08/21 03:17:41;;;;;;;15.30;11.97;;;;;;;18.09;100.00;97439.09;1731533;81;21012;-89
2022/08/21 03:20:08;;;;;;;16.60;11.65;;;;;;;18.09;100.00;97442.41;1728421;80;20965;-89
2022/08/21 03:22:35;;;;;;;19.85;11.50;;;;;;;18.10;100.00;97447.55;1728068;81;21011;-89
2022/08/21 03:25:01;;;;;;;21.93;11.95;;;;;;;18.12;100.00;97454.87;1727622;81;21460;-89
2022/08/21 03:27:28;;;;;;;21.10;13.40;;;;;;;18.11;100.00;97453.25;1727159;81;21265;-88
2022/08/21 03:29:54;;;;;;;23.38;12.65;;;;;;;18.14;100.00;97458.07;1731636;80;20957;-89
2022/08/21 03:32:20;;;;;;;22.27;13.03;;;;;;;18.16;100.00;97459.89;1726412;83;21052;-89
2022/08/21 03:34:46;;;;;;;15.40;12.43;;;;;;;18.17;100.00;97462.86;1765614;81;20994;-89
2022/08/21 03:37:13;;;;;;;23.45;14.20;;;;;;;18.19;100.00;97463.31;1765969;80;21077;-89
2022/08/21 03:39:39;;;;;;;18.35;14.87;;;;;;;18.22;100.00;97461.84;1722531;82;21056;-88
2022/08/21 03:42:06;;;;;;;20.48;14.95;;;;;;;18.23;100.00;97464.23;1733747;82;21399;-89
2022/08/21 03:44:32;;;;;;;20.97;14.20;;;;;;;18.24;100.00;97461.72;1755549;81;20964;-89
2022/08/21 03:46:59;;;;;;;21.95;15.28;;;;;;;18.24;100.00;97460.34;1759265;81;20953;-87
2022/08/21 03:49:25;;;;;;;24.98;14.85;;;;;;;18.28;100.00;97459.88;1759514;81;22405;-89
2022/08/21 03:51:51;;;;;;;18.95;14.13;;;;;;;18.30;100.00;97460.36;1758511;81;21682;-89
2022/08/21 03:54:17;;;;;;;22.85;13.32;;;;;;;18.33;100.00;97462.98;1735006;81;21555;-89
2022/08/21 03:56:43;;;;;;;19.77;14.60;;;;;;;18.35;100.00;97461.26;1726574;83;21003;-89
2022/08/21 03:59:10;;;;;;;17.37;12.68;;;;;;;18.33;100.00;97452.80;1733440;81;21487;-89
2022/08/21 04:01:36;;;;;;;17.37;12.13;;;;;;;18.35;100.00;97458.52;1726662;82;21008;-88
2022/08/21 04:04:03;;;;;;;18.65;12.35;;;;;;;18.35;100.00;97456.56;1711603;83;21123;-88
2022/08/21 04:06:29;;;;;;;25.25;14.40;;;;;;;18.40;100.00;97461.04;1670659;85;21032;-90
2022/08/21 04:08:55;;;;;;;16.35;13.08;;;;;;;18.43;100.00;97463.08;1670271;84;21442;-89
2022/08/21 04:11:21;;;;;;;21.40;13.43;;;;;;;18.46;100.00;97452.23;1687546;84;21564;-89
2022/08/21 04:13:47;;;;;;;20.90;14.13;;;;;;;18.49;100.00;97453.48;1697920;83;21512;-90
2022/08/21 04:16:13;;;;;;;19.35;14.10;;;;;;;18.50;100.00;97460.56;1698816;83;21093;-88
2022/08/21 04:18:39;;;;;;;16.77;12.28;;;;;;;18.50;100.00;97455.87;1698121;83;21573;-89
2022/08/21 04:21:05;;;;;;;15.00;11.40;;;;;;;18.52;100.00;97456.90;1698703;84;20989;-88
2022/08/21 04:23:31;;;;;;;14.55;11.63;;;;;;;18.53;100.00;97457.92;1689387;84;21032;-89
2022/08/21 04:25:58;;;;;;;16.73;10.90;;;;;;;18.57;100.00;97459.42;1695954;83;21090;-88
2022/08/21 04:28:25;;;;;;;18.90;10.70;;;;;;;18.57;100.00;97457.47;1695935;83;21131;-89
2022/08/21 04:30:51;;;;;;;17.80;9.68;;;;;;;18.59;100.00;97459.30;1696067;84;20993;-89
2022/08/21 04:33:19;;;;;;;17.48;9.98;;;;;;;18.58;100.00;97456.33;1701258;83;21396;-88
2022/08/21 04:35:45;;;;;;;17.52;10.35;;;;;;;18.60;100.00;97450.48;1707824;82;21388;-90
2022/08/21 04:38:11;;;;;;;15.90;9.85;;;;;;;18.64;100.00;97457.47;1726998;81;21671;-90
2022/08/21 04:40:37;;;;;;;16.07;10.40;;;;;;;18.70;100.00;97454.73;1765627;81;20982;-89
2022/08/21 04:43:06;;;;;;;13.30;10.20;;;;;;;18.71;100.00;97459.06;1765327;81;20855;-88
2022/08/21 04:45:39;;;;;;;16.50;11.33;;;;;;;18.77;100.00;97452.20;1766272;81;21453;-88
2022/08/21 04:48:07;;;;;;;16.55;10.48;;;;;;;18.81;100.00;97454.49;1765868;81;21005;-88
2022/08/21 04:50:47;;;;;;;14.87;10.20;;;;;;;18.86;100.00;97459.15;1766327;81;21576;-88
2022/08/21 04:53:20;;;;;;;16.00;10.50;;;;;;;18.87;100.00;97453.09;1760434;81;21517;-90
2022/08/21 04:55:46;;;;;;;13.85;9.70;;;;;;;18.91;100.00;97454.58;1735663;82;20966;-89
2022/08/21 04:58:14;;;;;;;12.78;8.68;;;;;;;18.94;100.00;97456.62;1735161;81;21104;-89
2022/08/21 05:00:40;;;;;;;14.10;10.05;;;;;;;18.98;100.00;97458.91;1724466;83;21003;-90
2022/08/21 05:03:07;;;;;;;15.85;9.15;;;;;;;19.02;100.00;97453.73;1729501;81;20931;-90
2022/08/21 05:05:33;;;;;;;10.30;8.53;;;;;;;19.10;100.00;97461.60;1707112;83;21836;-89
2022/08/21 05:07:59;;;;;;;11.65;9.48;;;;;;;19.13;100.00;97463.06;1734529;81;21006;-89
2022/08/21 05:10:26;;;;;;;16.37;10.03;;;;;;;19.13;100.00;97463.64;1742623;81;20992;-89
2022/08/21 05:12:52;;;;;;;17.98;9.18;;;;;;;19.13;100.00;97467.19;1767440;81;21118;-89
2022/08/21 05:15:18;;;;;;;10.75;8.33;;;;;;;19.18;100.00;97463.41;1766264;81;20958;-89
2022/08/21 05:17:44;;;;;;;14.10;9.33;;;;;;;19.19;100.00;97464.20;1766001;81;21018;-89
2022/08/21 05:20:12;;;;;;;12.07;9.10;;;;;;;19.25;100.00;97469.10;1765733;81;20994;-89
2022/08/21 05:22:38;;;;;;;14.83;9.93;;;;;;;19.33;100.00;97468.73;1763810;81;21430;-89
2022/08/21 05:25:06;;;;;;;16.90;13.88;;;;;;;19.39;100.00;97474.17;1734448;81;21480;-90
2022/08/21 05:27:32;;;;;;;20.47;14.33;;;;;;;19.45;100.00;97472.21;1734779;81;21544;-89
2022/08/21 05:29:58;;;;;;;17.77;13.15;;;;;;;19.50;100.00;97475.87;1761360;81;21864;-89
2022/08/21 05:32:24;;;;;;;17.70;12.80;;;;;;;19.56;100.00;97479.94;1765310;81;21409;-89
2022/08/21 05:34:50;;;;;;;25.17;15.90;;;;;;;19.63;100.00;97469.17;1766569;81;21001;-89
2022/08/21 05:37:16;;;;;;;18.25;12.68;;;;;;;19.70;100.00;97472.12;1765945;81;20966;-89
2022/08/21 05:39:42;;;;;;;15.63;11.83;;;;;;;19.73;100.00;97468.08;1765251;81;21017;-89
2022/08/21 05:42:08;;;;;;;36.48;14.07;;;;;;;19.79;100.00;97473.33;1765977;81;21148;-89
2022/08/21 05:44:34;;;;;;;22.82;14.53;;;;;;;19.82;100.00;97473.41;1737251;81;21056;-89
2022/08/21 05:47:07;;;;;;;22.42;14.05;;;;;;;19.84;100.00;97475.83;1726684;83;21020;-89
2022/08/21 05:49:33;;;;;;;27.87;19.25;;;;;;;19.82;100.00;97476.73;1762516;81;20990;-89
2022/08/21 05:51:59;;;;;;;20.23;13.60;;;;;;;19.80;100.00;97480.41;1765957;81;21477;-89
2022/08/21 05:54:26;;;;;;;25.02;12.43;;;;;;;19.80;100.00;97475.72;1745455;81;40224;-89
2022/08/21 05:56:52;;;;;;;18.32;11.18;;;;;;;19.82;100.00;97469.28;1735316;82;21008;-89
2022/08/21 05:59:18;;;;;;;16.30;10.80;;;;;;;19.86;100.00;97476.27;1756885;81;20927;-89
2022/08/21 06:01:45;;;;;;;15.28;10.85;;;;;;;19.86;100.00;97477.06;1765859;81;21465;-88
2022/08/21 06:04:12;;;;;;;18.90;11.08;;;;;;;19.90;100.00;97480.69;1743360;81;21004;-87
2022/08/21 06:06:38;;;;;;;17.87;12.18;;;;;;;19.96;100.00;97484.78;1726718;83;21429;-89
2022/08/21 06:09:04;;;;;;;20.57;13.90;;;;;;;20.06;100.00;97492.28;1753530;81;21428;-88
2022/08/21 06:11:30;;;;;;;19.85;12.45;;;;;;;20.17;100.00;97490.04;1765170;81;21006;-89
2022/08/21 06:13:56;;;;;;;18.12;12.93;;;;;;;20.29;100.00;97487.18;1761607;81;20989;-90
2022/08/21 06:16:22;;;;;;;18.77;12.43;;;;;;;20.37;100.00;97488.73;1766005;81;20978;-90
2022/08/21 06:18:48;;;;;;;17.48;12.33;;;;;;;20.35;100.00;97491.05;1746594;81;21240;-89
2022/08/21 06:21:14;;;;;;;16.80;11.03;;;;;;;20.37;100.00;97486.78;1726683;83;20928;-89
2022/08/21 06:23:41;;;;;;;16.90;13.20;;;;;;;20.47;100.00;97484.89;1730988;81;21060;-89
2022/08/21 06:26:07;;;;;;;17.23;11.65;;;;;;;20.55;100.00;97478.97;1726878;82;21381;-89
2022/08/21 06:28:33;;;;;;;14.95;11.88;;;;;;;20.67;100.00;97478.84;1745656;81;20977;-89
2022/08/21 06:30:59;;;;;;;16.85;11.93;;;;;;;20.78;100.00;97486.79;1766099;81;21741;-88
2022/08/21 06:33:26;;;;;;;15.38;11.33;;;;;;;20.84;100.00;97487.29;1765496;80;21009;-90
2022/08/21 06:35:52;;;;;;;16.10;12.07;;;;;;;20.77;100.00;97488.53;1746829;81;21363;-89
2022/08/21 06:38:18;;;;;;;19.92;12.30;;;;;;;20.74;100.00;97487.27;1758005;81;20949;-91
2022/08/21 06:40:44;;;;;;;22.30;12.53;;;;;;;20.77;100.00;97490.70;1726772;82;20992;-91
2022/08/21 06:43:14;;;;;;;24.02;14.33;;;;;;;20.76;100.00;97493.80;1721068;81;21102;-90
2022/08/21 06:45:40;;;;;;;21.42;14.90;;;;;;;20.76;100.00;97491.04;1765973;81;20989;-90
2022/08/21 06:48:09;;;;;;;17.82;13.68;;;;;;;20.75;100.00;97485.31;1762401;81;21022;-89
2022/08/21 06:50:35;;;;;;;21.80;13.70;;;;;;;20.75;100.00;97492.20;1766099;80;21017;-90
2022/08/21 06:53:05;;;;;;;23.87;14.50;;;;;;;20.82;100.00;97489.03;1765366;81;21001;-89
2022/08/21 06:55:32;;;;;;;20.08;14.93;;;;;;;20.79;100.00;97494.47;1766130;81;21053;-90
2022/08/21 06:57:58;;;;;;;25.02;15.50;;;;;;;20.83;100.00;97500.84;1760935;81;21478;-91
2022/08/21 07:00:24;;;;;;;21.48;14.98;;;;;;;20.90;100.00;97503.76;1766227;81;20942;-90
2022/08/21 07:02:50;;;;;;;24.52;14.95;;;;;;;20.94;100.00;97499.14;1765564;81;20978;-90
2022/08/21 07:05:16;;;;;;;25.20;16.35;;;;;;;21.01;100.00;97498.48;1735800;82;21005;-89
2022/08/21 07:07:42;;;;;;;24.15;16.42;;;;;;;21.03;100.00;97505.24;1737035;81;21159;-89
2022/08/21 07:10:09;;;;;;;26.12;15.35;;;;;;;21.03;100.00;97504.44;1739336;81;20942;-90
2022/08/21 07:12:35;;;;;;;23.02;15.50;;;;;;;21.02;100.00;97507.78;1766866;80;21004;-89
2022/08/21 07:15:01;;;;;;;33.02;16.82;;;;;;;21.02;100.00;97508.33;1728980;81;21027;-90
2022/08/21 07:17:27;;;;;;;26.77;16.10;;;;;;;20.98;100.00;97509.64;1727555;81;20989;-88
2022/08/21 07:19:52;;;;;;;25.43;16.52;;;;;;;20.93;100.00;97511.29;1746236;81;21172;-89
2022/08/21 07:22:19;;;;;;;27.10;16.52;;;;;;;20.92;100.00;97511.66;1766714;81;20807;-90
2022/08/21 07:24:45;;;;;;;27.45;16.57;;;;;;;20.97;100.00;97512.77;1739385;81;20986;-89
2022/08/21 07:27:11;;;;;;;26.65;16.75;;;;;;;21.07;100.00;97510.23;1735458;82;20885;-90
2022/08/21 07:29:37;;;;;;;28.25;17.90;;;;;;;21.14;100.00;97506.84;1715684;82;20950;-90
2022/08/21 07:32:03;;;;;;;29.70;22.70;;;;;;;21.17;100.00;97510.23;1733959;81;21143;-90
2022/08/21 07:34:30;;;;;;;35.98;24.67;;;;;;;21.11;100.00;97508.95;1758245;81;20942;-91
2022/08/21 07:36:57;;;;;;;39.50;23.45;;;;;;;21.19;100.00;97512.05;1765932;81;20936;-91
2022/08/21 07:39:23;;;;;;;48.03;25.10;;;;;;;21.09;100.00;97509.28;1734937;81;21012;-89
2022/08/21 07:41:49;;;;;;;43.58;25.80;;;;;;;21.09;100.00;97512.04;1726722;83;21056;-90
2022/08/21 07:44:15;;;;;;;36.55;24.63;;;;;;;21.10;100.00;97513.63;1754231;81;21142;-89
2022/08/21 07:46:41;;;;;;;37.45;23.75;;;;;;;21.11;100.00;97512.50;1765834;81;20834;-90
2022/08/21 07:49:07;;;;;;;36.13;24.20;;;;;;;21.09;100.00;97508.49;1737732;81;20928;-90
2022/08/21 07:51:33;;;;;;;40.73;24.60;;;;;;;21.17;100.00;97514.95;1724356;83;20865;-89
2022/08/21 07:53:59;;;;;;;39.88;25.55;;;;;;;21.10;100.00;97516.39;1730879;81;20953;-90
2022/08/21 07:56:26;;;;;;;40.60;24.30;;;;;;;20.84;100.00;97512.06;1731031;82;21123;-90
2022/08/21 07:58:52;;;;;;;41.28;26.55;;;;;;;20.86;100.00;97509.78;1744685;81;21009;-90
2022/08/21 08:01:19;;;;;;;43.95;26.60;;;;;;;20.81;100.00;97516.92;1765930;81;20946;-89
2022/08/21 08:03:46;;;;;;;45.12;29.20;;;;;;;20.79;100.00;97517.29;1750611;81;21020;-89
2022/08/21 08:06:16;;;;;;;48.92;29.40;;;;;;;20.72;100.00;97512.99;1726943;83;20973;-90
2022/08/21 08:08:42;;;;;;;44.80;28.02;;;;;;;20.70;100.00;97510.39;1732708;81;21832;-90
2022/08/21 08:11:14;;;;;;;59.95;37.63;;;;;;;20.69;100.00;97509.59;1748024;81;21004;-90
2022/08/21 08:13:41;;;;;;;53.55;32.08;;;;;;;20.66;100.00;97505.36;1766067;80;22118;-90
2022/08/21 08:16:08;;;;;;;46.10;27.80;;;;;;;20.69;100.00;97510.97;1766173;81;20947;-90
2022/08/21 08:18:34;;;;;;;44.58;27.60;;;;;;;20.79;100.00;97508.23;1760097;81;20966;-90
2022/08/21 08:21:00;;;;;;;46.50;28.65;;;;;;;20.83;100.00;97507.14;1762045;80;21831;-88
2022/08/21 08:23:27;;;;;;;42.08;27.60;;;;;;;20.94;100.00;97503.27;1756930;81;21001;-91
2022/08/21 08:25:53;;;;;;;50.48;29.67;;;;;;;20.91;100.00;97508.69;1766043;81;21010;-90
2022/08/21 08:28:19;;;;;;;41.23;26.60;;;;;;;20.95;100.00;97504.86;1765249;81;20839;-91
2022/08/21 08:30:45;;;;;;;46.88;27.52;;;;;;;20.95;100.00;97499.36;1746960;81;20961;-91
2022/08/21 08:33:11;;;;;;;39.23;26.02;;;;;;;20.82;100.00;97501.42;1756841;81;21197;-91
2022/08/21 08:35:37;;;;;;;51.65;27.17;;;;;;;20.81;100.00;97500.41;1731096;83;21397;-89
2022/08/21 08:38:03;;;;;;;45.50;27.80;;;;;;;20.77;100.00;97503.67;1740017;81;21022;-90
2022/08/21 08:40:44;;;;;;;44.10;27.02;;;;;;;20.73;100.00;97502.78;1762752;81;21539;-90
2022/08/21 08:43:12;;;;;;;49.70;28.65;;;;;;;20.70;100.00;97499.38;1745617;81;20985;-91
2022/08/21 08:45:39;;;;;;;39.98;26.50;;;;;;;20.64;100.00;97502.97;1761349;81;21015;-90
2022/08/21 08:48:08;;;;;;;45.10;26.68;;;;;;;20.65;100.00;97503.77;1757520;81;20983;-89
2022/08/21 08:50:49;;;;;;;46.68;27.22;;;;;;;20.54;100.00;97507.08;1747079;81;21052;-89
2022/08/21 08:53:24;;;;;;;47.10;26.12;;;;;;;20.47;100.00;97506.90;1755586;81;20971;-90
2022/08/21 08:55:51;;;;;;;41.60;26.12;;;;;;;20.46;100.00;97501.17;1761128;81;21019;-89
2022/08/21 08:58:30;;;;;;;46.55;28.38;;;;;;;20.46;100.00;97510.81;1749855;80;21062;-89
2022/08/21 09:00:56;;;;;;;47.17;27.37;;;;;;;20.44;100.00;97505.45;1705613;81;21280;-91
2022/08/21 09:03:23;;;;;;;46.02;28.17;;;;;;;20.40;100.00;97503.94;1715828;81;21449;-89
2022/08/21 09:06:13;;;;;;;46.53;26.77;;;;;;;20.35;100.00;97502.05;1764036;81;20954;-91
2022/08/21 09:08:54;;;;;;;49.45;25.85;;;;;;;20.31;100.00;97504.70;1746242;81;20984;-91
2022/08/21 09:11:31;;;;;;;49.93;26.93;;;;;;;20.33;100.00;97500.22;1748831;81;21122;-91
2022/08/21 09:14:15;;;;;;;41.05;25.25;;;;;;;20.33;100.00;97498.84;1723865;82;21033;-91
2022/08/21 09:17:06;;;;;;;39.35;26.57;;;;;;;20.33;100.00;97499.63;1734640;81;21557;-91
2022/08/21 09:20:06;;;;;;;47.00;27.67;;;;;;;20.35;100.00;97500.68;1746801;81;21025;-90
2022/08/21 09:22:58;;;;;;;43.42;24.72;;;;;;;20.26;100.00;97498.11;1761679;79;20990;-89
2022/08/21 09:25:28;;;;;;;23.12;15.48;;;;;;;20.20;100.00;97507.20;1762781;80;21115;-90
2022/08/21 09:27:54;;;;;;;17.20;10.85;;;;;;;20.14;100.00;97511.36;1764524;81;20955;-91
2022/08/21 09:30:28;;;;;;;15.38;9.50;;;;;;;19.86;100.00;97517.50;1735959;82;20946;-90
2022/08/21 09:32:54;;;;;;;14.68;9.73;;;;;;;19.84;100.00;97526.11;1740496;81;20998;-89
2022/08/21 09:35:22;;;;;;;12.43;8.60;;;;;;;19.73;100.00;97514.80;1736022;82;20949;-89
2022/08/21 09:38:00;;;;;;;11.18;8.10;;;;;;;19.76;100.00;97518.02;1714810;81;21032;-91
2022/08/21 09:40:30;;;;;;;;;;;;;;;19.70;100.00;97521.01;1728993;82;21287;-89
2022/08/21 09:43:13;;;;;;;13.25;7.72;;;;;;;19.66;100.00;97519.33;1742868;81;20176;-89
2022/08/21 09:45:41;;;;;;;13.25;7.12;;;;;;;19.64;100.00;97516.91;1726976;82;20996;-90
2022/08/21 09:48:22;;;;;;;11.45;8.03;;;;;;;19.54;100.00;97511.09;1722953;82;21019;-91
2022/08/21 09:50:49;;;;;;;14.38;7.65;;;;;;;19.49;100.00;97510.79;1758803;81;21318;-90
2022/08/21 09:53:25;;;;;;;9.78;6.47;;;;;;;19.53;100.00;97507.55;1754056;81;20934;-89
2022/08/21 09:58:44;;;;;;;7.15;5.30;;;;;;;19.55;100.00;97505.82;1740477;81;20966;-89
2022/08/21 10:01:17;;;;;;;6.95;5.22;;;;;;;19.53;100.00;97513.05;1734895;82;21025;-89
2022/08/21 10:03:43;;;;;;;6.62;4.55;;;;;;;19.47;100.00;97506.20;1726003;82;21032;-90
2022/08/21 10:06:10;;;;;;;8.90;6.42;;;;;;;19.43;100.00;97515.72;1734999;82;21037;-88
2022/08/21 10:08:38;;;;;;;6.15;5.22;;;;;;;19.36;100.00;97507.28;1713180;82;21017;-89
2022/08/21 10:11:09;;;;;;;7.22;5.75;;;;;;;19.42;100.00;97510.58;1750931;81;20984;-89
2022/08/21 10:13:49;;;;;;;6.42;5.12;;;;;;;19.50;100.00;97508.84;1746023;81;21297;-89
2022/08/21 10:16:46;;;;;;;5.25;4.50;;;;;;;19.54;100.00;97512.47;1726819;83;20990;-90
2022/08/21 10:19:43;;;;;;;8.35;3.92;;;;;;;19.60;100.00;97516.60;1729394;80;20959;-90
2022/08/21 10:22:26;;;;;;;3.90;2.92;;;;;;;19.53;100.00;97521.29;1766003;81;21120;-88
2022/08/21 10:25:10;;;;;;;4.60;2.98;;;;;;;19.55;100.00;97516.23;1766072;80;20987;-89
2022/08/21 10:27:54;;;;;;;4.55;2.92;;;;;;;19.68;100.00;97519.77;1765933;81;21397;-90
2022/08/21 10:30:50;;;;;;;2.70;2.20;;;;;;;19.76;100.00;97515.27;1766141;81;21126;-89
2022/08/21 10:33:34;;;;;;;4.37;2.77;;;;;;;19.83;100.00;97518.22;1765593;81;20982;-89
2022/08/21 10:36:26;;;;;;;5.05;3.17;;;;;;;19.82;100.00;97517.97;1758569;81;20942;-90
2022/08/21 10:39:09;;;;;;;4.22;2.50;;;;;;;19.82;100.00;97522.89;1752851;81;20981;-89
2022/08/21 10:41:56;;;;;;;3.60;2.83;;;;;;;19.85;100.00;97524.95;1763705;81;21011;-89
2022/08/21 10:45:00;;;;;;;5.00;2.85;;;;;;;19.80;100.00;97523.02;1743410;81;21097;-90
2022/08/21 10:47:49;;;;;;;4.20;1.70;;;;;;;19.83;100.00;97523.14;1734156;81;21374;-90
2022/08/21 10:50:45;;;;;;;3.80;2.75;;;;;;;19.86;100.00;97528.50;1740188;81;21018;-90
2022/08/21 10:53:54;;;;;;;4.28;2.45;;;;;;;19.77;100.00;97530.03;1738609;81;21030;-89
2022/08/21 10:56:32;;;;;;;7.03;2.85;;;;;;;19.82;100.00;97529.76;1735686;81;21323;-90
2022/08/21 10:59:25;;;;;;;;;;;;;;;19.80;100.00;97534.02;1763360;81;21815;-90
2022/08/21 11:02:35;;;;;;;4.35;2.52;;;;;;;19.80;100.00;97536.19;1765761;79;20153;-89
2022/08/21 11:05:19;;;;;;;2.50;2.05;;;;;;;19.80;100.00;97535.39;1766064;80;21002;-88
2022/08/21 11:07:48;;;;;;;5.28;2.65;;;;;;;19.74;100.00;97541.73;1765578;80;21037;-90
2022/08/21 11:10:23;;;;;;;3.40;2.05;;;;;;;19.75;100.00;97544.70;1750777;79;21038;-89
2022/08/21 11:12:57;;;;;;;3.60;2.37;;;;;;;19.71;100.00;97535.55;1789940;79;21129;-89
2022/08/21 11:15:45;;;;;;;3.60;2.08;;;;;;;19.66;100.00;97538.00;1675078;82;21088;-89
2022/08/21 11:18:32;;;;;;;5.53;2.30;;;;;;;19.63;100.00;97539.25;1717908;81;20965;-89
2022/08/21 11:21:35;;;;;;;5.25;3.17;;;;;;;19.60;100.00;97541.34;1758570;81;20988;-89
2022/08/21 11:24:31;;;;;;;7.80;4.42;;;;;;;19.58;100.00;97538.14;1746570;81;22251;-90
2022/08/21 11:27:08;;;;;;;6.05;3.52;;;;;;;19.61;100.00;97534.11;1735298;81;21144;-90